sensor_id;sensor_type;location;lat;lon;timestamp;pressure;altitude;pressure_sealevel;temperature
53412;BMP280;39307;52.870;13.660;2023-06-26T00:01:58;101006.69;;;18.87
53412;BMP280;39307;52.870;13.660;2023-06-26T00:04:25;101006.34;;;18.83
53412;BMP280;39307;52.870;13.660;2023-06-26T00:06:51;100999.28;;;18.78
53412;BMP280;39307;52.870;13.660;2023-06-26T00:09:17;101004.81;;;18.76
53412;BMP280;39307;52.870;13.660;2023-06-26T00:11:43;101000.31;;;18.77
53412;BMP280;39307;52.870;13.660;2023-06-26T00:14:09;101004.34;;;18.79
53412;BMP280;39307;52.870;13.660;2023-06-26T00:16:36;101005.59;;;18.77
53412;BMP280;39307;52.870;13.660;2023-06-26T00:19:02;101005.16;;;18.79
53412;BMP280;39307;52.870;13.660;2023-06-26T00:21:28;101002.28;;;18.81
53412;BMP280;39307;52.870;13.660;2023-06-26T00:23:54;101001.50;;;18.80
53412;BMP280;39307;52.870;13.660;2023-06-26T00:26:21;100999.97;;;18.73
53412;BMP280;39307;52.870;13.660;2023-06-26T00:28:48;100997.75;;;18.70
53412;BMP280;39307;52.870;13.660;2023-06-26T00:31:14;100999.63;;;18.70
53412;BMP280;39307;52.870;13.660;2023-06-26T00:33:40;101001.47;;;18.69
53412;BMP280;39307;52.870;13.660;2023-06-26T00:36:06;100989.47;;;18.67
53412;BMP280;39307;52.870;13.660;2023-06-26T00:38:32;100996.59;;;18.66
53412;BMP280;39307;52.870;13.660;2023-06-26T00:40:59;100990.72;;;18.64
53412;BMP280;39307;52.870;13.660;2023-06-26T00:43:25;100995.81;;;18.66
53412;BMP280;39307;52.870;13.660;2023-06-26T00:45:51;100996.16;;;18.69
53412;BMP280;39307;52.870;13.660;2023-06-26T00:48:18;100995.00;;;18.65
53412;BMP280;39307;52.870;13.660;2023-06-26T00:50:44;100988.66;;;18.66
53412;BMP280;39307;52.870;13.660;2023-06-26T00:53:11;100984.16;;;18.67
53412;BMP280;39307;52.870;13.660;2023-06-26T00:55:37;100998.81;;;18.69
53412;BMP280;39307;52.870;13.660;2023-06-26T00:58:04;100987.16;;;18.70
53412;BMP280;39307;52.870;13.660;2023-06-26T01:00:30;100985.31;;;18.71
53412;BMP280;39307;52.870;13.660;2023-06-26T01:02:57;100982.91;;;18.69
53412;BMP280;39307;52.870;13.660;2023-06-26T01:05:23;100981.41;;;18.73
53412;BMP280;39307;52.870;13.660;2023-06-26T01:07:50;100977.94;;;18.73
53412;BMP280;39307;52.870;13.660;2023-06-26T01:10:16;100974.63;;;18.77
53412;BMP280;39307;52.870;13.660;2023-06-26T01:12:43;100972.53;;;18.79
53412;BMP280;39307;52.870;13.660;2023-06-26T01:15:09;100970.47;;;18.81
53412;BMP280;39307;52.870;13.660;2023-06-26T01:17:37;100973.25;;;18.86
53412;BMP280;39307;52.870;13.660;2023-06-26T01:20:06;100966.88;;;18.87
53412;BMP280;39307;52.870;13.660;2023-06-26T01:27:56;100962.03;;;18.84
53412;BMP280;39307;52.870;13.660;2023-06-26T01:30:23;100957.53;;;18.84
53412;BMP280;39307;52.870;13.660;2023-06-26T01:32:50;100948.31;;;18.87
53412;BMP280;39307;52.870;13.660;2023-06-26T01:35:17;100948.69;;;18.90
53412;BMP280;39307;52.870;13.660;2023-06-26T01:37:43;100953.75;;;18.92
53412;BMP280;39307;52.870;13.660;2023-06-26T01:40:10;100953.53;;;18.93
53412;BMP280;39307;52.870;13.660;2023-06-26T01:42:36;100954.34;;;18.94
53412;BMP280;39307;52.870;13.660;2023-06-26T01:45:26;100955.59;;;18.91
53412;BMP280;39307;52.870;13.660;2023-06-26T01:47:56;100949.94;;;18.88
53412;BMP280;39307;52.870;13.660;2023-06-26T01:50:28;100949.94;;;18.88
53412;BMP280;39307;52.870;13.660;2023-06-26T01:53:18;100947.66;;;18.91
53412;BMP280;39307;52.870;13.660;2023-06-26T01:55:50;100944.19;;;18.91
53412;BMP280;39307;52.870;13.660;2023-06-26T01:58:20;100936.09;;;18.86
53412;BMP280;39307;52.870;13.660;2023-06-26T02:00:48;100935.53;;;18.84
53412;BMP280;39307;52.870;13.660;2023-06-26T02:03:15;100926.41;;;18.80
53412;BMP280;39307;52.870;13.660;2023-06-26T02:05:41;100929.28;;;18.78
53412;BMP280;39307;52.870;13.660;2023-06-26T02:08:08;100928.47;;;18.78
53412;BMP280;39307;52.870;13.660;2023-06-26T02:10:35;100925.03;;;18.78
53412;BMP280;39307;52.870;13.660;2023-06-26T02:13:01;100926.41;;;18.80
53412;BMP280;39307;52.870;13.660;2023-06-26T02:15:27;100925.97;;;18.83
53412;BMP280;39307;52.870;13.660;2023-06-26T02:17:53;100925.72;;;18.84
53412;BMP280;39307;52.870;13.660;2023-06-26T02:20:19;100922.25;;;18.84
53412;BMP280;39307;52.870;13.660;2023-06-26T02:22:46;100916.16;;;18.83
53412;BMP280;39307;52.870;13.660;2023-06-26T02:25:12;100918.56;;;18.85
53412;BMP280;39307;52.870;13.660;2023-06-26T02:27:38;100921.22;;;18.85
53412;BMP280;39307;52.870;13.660;2023-06-26T02:30:05;100919.59;;;18.84
53412;BMP280;39307;52.870;13.660;2023-06-26T02:32:31;100916.94;;;18.84
53412;BMP280;39307;52.870;13.660;2023-06-26T02:34:58;100923.84;;;18.85
53412;BMP280;39307;52.870;13.660;2023-06-26T02:37:24;100916.50;;;18.87
53412;BMP280;39307;52.870;13.660;2023-06-26T02:39:50;100918.72;;;18.90
53412;BMP280;39307;52.870;13.660;2023-06-26T02:42:17;100913.41;;;18.90
53412;BMP280;39307;52.870;13.660;2023-06-26T02:44:43;100913.16;;;18.91
53412;BMP280;39307;52.870;13.660;2023-06-26T02:47:09;100915.59;;;18.93
53412;BMP280;39307;52.870;13.660;2023-06-26T02:49:35;100912.69;;;18.94
53412;BMP280;39307;52.870;13.660;2023-06-26T02:52:01;100914.78;;;18.92
53412;BMP280;39307;52.870;13.660;2023-06-26T02:54:28;100911.31;;;18.92
53412;BMP280;39307;52.870;13.660;2023-06-26T02:56:54;100907.63;;;18.93
53412;BMP280;39307;52.870;13.660;2023-06-26T02:59:20;100910.03;;;18.94
53412;BMP280;39307;52.870;13.660;2023-06-26T03:01:46;100903.94;;;18.94
53412;BMP280;39307;52.870;13.660;2023-06-26T03:04:12;100900.16;;;18.90
53412;BMP280;39307;52.870;13.660;2023-06-26T03:06:39;100904.41;;;18.91
53412;BMP280;39307;52.870;13.660;2023-06-26T03:09:05;100907.06;;;18.91
53412;BMP280;39307;52.870;13.660;2023-06-26T03:11:31;100907.06;;;18.91
53412;BMP280;39307;52.870;13.660;2023-06-26T03:13:57;100901.53;;;18.92
53412;BMP280;39307;52.870;13.660;2023-06-26T03:16:23;100893.91;;;18.96
53412;BMP280;39307;52.870;13.660;2023-06-26T03:18:49;100900.16;;;18.90
53412;BMP280;39307;52.870;13.660;2023-06-26T03:21:16;100900.16;;;18.90
53412;BMP280;39307;52.870;13.660;2023-06-26T03:23:42;100890.19;;;18.85
53412;BMP280;39307;52.870;13.660;2023-06-26T03:26:09;100897.34;;;18.85
53412;BMP280;39307;52.870;13.660;2023-06-26T03:28:35;100896.19;;;18.81
53412;BMP280;39307;52.870;13.660;2023-06-26T03:31:01;100905.75;;;18.82
53412;BMP280;39307;52.870;13.660;2023-06-26T03:33:27;100891.47;;;18.83
53412;BMP280;39307;52.870;13.660;2023-06-26T03:35:53;100894.13;;;18.83
53412;BMP280;39307;52.870;13.660;2023-06-26T03:38:21;100896.78;;;18.83
53412;BMP280;39307;52.870;13.660;2023-06-26T03:40:47;100887.66;;;18.79
53412;BMP280;39307;52.870;13.660;2023-06-26T03:43:13;100886.63;;;18.80
53412;BMP280;39307;52.870;13.660;2023-06-26T03:45:39;100886.25;;;18.77
53412;BMP280;39307;52.870;13.660;2023-06-26T03:48:05;100882.25;;;18.74
53412;BMP280;39307;52.870;13.660;2023-06-26T03:50:32;100883.06;;;18.75
53412;BMP280;39307;52.870;13.660;2023-06-26T03:52:58;100880.88;;;18.72
53412;BMP280;39307;52.870;13.660;2023-06-26T03:55:24;100884.78;;;18.69
53412;BMP280;39307;52.870;13.660;2023-06-26T03:57:50;100882.13;;;18.69
53412;BMP280;39307;52.870;13.660;2023-06-26T04:00:16;100888.56;;;18.73
53412;BMP280;39307;52.870;13.660;2023-06-26T04:02:43;100881.19;;;18.75
53412;BMP280;39307;52.870;13.660;2023-06-26T04:05:09;100880.41;;;18.75
53412;BMP280;39307;52.870;13.660;2023-06-26T04:07:36;100877.75;;;18.75
53412;BMP280;39307;52.870;13.660;2023-06-26T04:10:03;100881.19;;;18.75
53412;BMP280;39307;52.870;13.660;2023-06-26T04:12:29;100877.50;;;18.76
53412;BMP280;39307;52.870;13.660;2023-06-26T04:14:56;100877.28;;;18.78
53412;BMP280;39307;52.870;13.660;2023-06-26T04:17:22;100875.66;;;18.77
53412;BMP280;39307;52.870;13.660;2023-06-26T04:19:48;100869.88;;;18.79
53412;BMP280;39307;52.870;13.660;2023-06-26T04:22:14;100876.56;;;18.82
53412;BMP280;39307;52.870;13.660;2023-06-26T04:24:40;100867.34;;;18.84
53412;BMP280;39307;52.870;13.660;2023-06-26T04:27:06;100877.75;;;18.86
53412;BMP280;39307;52.870;13.660;2023-06-26T04:29:33;100872.44;;;18.86
53412;BMP280;39307;52.870;13.660;2023-06-26T04:31:59;100872.06;;;18.82
53412;BMP280;39307;52.870;13.660;2023-06-26T04:34:27;100873.84;;;18.77
53412;BMP280;39307;52.870;13.660;2023-06-26T04:36:54;100866.91;;;18.76
53412;BMP280;39307;52.870;13.660;2023-06-26T04:39:20;100869.78;;;18.75
53412;BMP280;39307;52.870;13.660;2023-06-26T04:41:46;100875.91;;;18.75
53412;BMP280;39307;52.870;13.660;2023-06-26T04:44:12;100865.03;;;18.77
53412;BMP280;39307;52.870;13.660;2023-06-26T04:46:39;100868.41;;;18.83
53412;BMP280;39307;52.870;13.660;2023-06-26T04:49:05;100861.59;;;18.87
53412;BMP280;39307;52.870;13.660;2023-06-26T04:51:31;100863.19;;;18.88
53412;BMP280;39307;52.870;13.660;2023-06-26T04:53:57;100855.22;;;18.88
53412;BMP280;39307;52.870;13.660;2023-06-26T04:56:23;100865.66;;;18.90
53412;BMP280;39307;52.870;13.660;2023-06-26T04:58:50;100861.97;;;18.91
53412;BMP280;39307;52.870;13.660;2023-06-26T05:01:16;100863.09;;;18.95
53412;BMP280;39307;52.870;13.660;2023-06-26T05:03:42;100863.94;;;18.95
53412;BMP280;39307;52.870;13.660;2023-06-26T05:06:08;100866.91;;;18.99
53412;BMP280;39307;52.870;13.660;2023-06-26T05:08:34;100873.38;;;19.03
53412;BMP280;39307;52.870;13.660;2023-06-26T05:11:00;100860.69;;;19.05
53412;BMP280;39307;52.870;13.660;2023-06-26T05:13:27;100855.72;;;19.08
53412;BMP280;39307;52.870;13.660;2023-06-26T05:15:53;100865.06;;;19.10
53412;BMP280;39307;52.870;13.660;2023-06-26T05:18:19;100859.84;;;19.15
53412;BMP280;39307;52.870;13.660;2023-06-26T05:20:46;100871.03;;;19.17
53412;BMP280;39307;52.870;13.660;2023-06-26T05:23:12;100865.25;;;19.20
53412;BMP280;39307;52.870;13.660;2023-06-26T05:25:39;100863.66;;;19.19
53412;BMP280;39307;52.870;13.660;2023-06-26T05:28:07;100860.16;;;19.19
53412;BMP280;39307;52.870;13.660;2023-06-26T05:30:33;100852.19;;;19.19
53412;BMP280;39307;52.870;13.660;2023-06-26T05:32:59;100846.69;;;19.20
53412;BMP280;39307;52.870;13.660;2023-06-26T05:35:28;100853.13;;;19.24
53412;BMP280;39307;52.870;13.660;2023-06-26T05:37:56;100851.59;;;19.28
53412;BMP280;39307;52.870;13.660;2023-06-26T05:40:23;100847.91;;;19.29
53412;BMP280;39307;52.870;13.660;2023-06-26T05:42:49;100840.50;;;19.31
53412;BMP280;39307;52.870;13.660;2023-06-26T05:45:15;100840.97;;;19.28
53412;BMP280;39307;52.870;13.660;2023-06-26T05:47:42;100837.06;;;19.31
53412;BMP280;39307;52.870;13.660;2023-06-26T05:50:09;100836.25;;;19.30
53412;BMP280;39307;52.870;13.660;2023-06-26T05:52:36;100831.06;;;19.35
53412;BMP280;39307;52.870;13.660;2023-06-26T05:55:06;100824.81;;;19.41
53412;BMP280;39307;52.870;13.660;2023-06-26T05:57:33;100825.47;;;19.48
53412;BMP280;39307;52.870;13.660;2023-06-26T06:00:00;100818.16;;;19.55
53412;BMP280;39307;52.870;13.660;2023-06-26T06:02:27;100822.50;;;19.61
53412;BMP280;39307;52.870;13.660;2023-06-26T06:04:53;100816.72;;;19.64
53412;BMP280;39307;52.870;13.660;2023-06-26T06:07:19;100813.00;;;19.76
53412;BMP280;39307;52.870;13.660;2023-06-26T06:09:45;100803.84;;;19.83
53412;BMP280;39307;52.870;13.660;2023-06-26T06:12:12;100808.25;;;19.94
53412;BMP280;39307;52.870;13.660;2023-06-26T06:14:38;100810.75;;;20.00
53412;BMP280;39307;52.870;13.660;2023-06-26T06:17:04;100801.13;;;20.11
53412;BMP280;39307;52.870;13.660;2023-06-26T06:19:30;100795.88;;;20.16
53412;BMP280;39307;52.870;13.660;2023-06-26T06:21:56;100789.66;;;20.26
53412;BMP280;39307;52.870;13.660;2023-06-26T06:24:23;100790.28;;;20.33
53412;BMP280;39307;52.870;13.660;2023-06-26T06:26:49;100789.16;;;20.46
53412;BMP280;39307;52.870;13.660;2023-06-26T06:29:15;100791.75;;;20.57
53412;BMP280;39307;52.870;13.660;2023-06-26T06:31:42;100790.28;;;20.66
53412;BMP280;39307;52.870;13.660;2023-06-26T06:34:08;100789.59;;;20.75
53412;BMP280;39307;52.870;13.660;2023-06-26T06:36:34;100783.13;;;20.87
53412;BMP280;39307;52.870;13.660;2023-06-26T06:39:00;100787.75;;;20.97
53412;BMP280;39307;52.870;13.660;2023-06-26T06:41:27;100784.97;;;21.08
53412;BMP280;39307;52.870;13.660;2023-06-26T06:43:53;100788.00;;;21.16
53412;BMP280;39307;52.870;13.660;2023-06-26T06:46:20;100774.00;;;21.26
53412;BMP280;39307;52.870;13.660;2023-06-26T06:48:46;100776.00;;;21.35
53412;BMP280;39307;52.870;13.660;2023-06-26T06:51:12;100774.00;;;21.47
53412;BMP280;39307;52.870;13.660;2023-06-26T06:53:39;100773.50;;;21.55
53412;BMP280;39307;52.870;13.660;2023-06-26T06:56:05;100765.38;;;21.66
53412;BMP280;39307;52.870;13.660;2023-06-26T06:58:31;100771.84;;;21.75
53412;BMP280;39307;52.870;13.660;2023-06-26T07:00:57;100753.03;;;21.86
53412;BMP280;39307;52.870;13.660;2023-06-26T07:03:23;100762.72;;;21.97
53412;BMP280;39307;52.870;13.660;2023-06-26T07:05:49;100761.78;;;22.08
53412;BMP280;39307;52.870;13.660;2023-06-26T07:08:16;100757.31;;;22.18
53412;BMP280;39307;52.870;13.660;2023-06-26T07:10:42;100765.38;;;22.28
53412;BMP280;39307;52.870;13.660;2023-06-26T07:13:09;100760.63;;;22.40
53412;BMP280;39307;52.870;13.660;2023-06-26T07:15:35;100751.38;;;22.52
53412;BMP280;39307;52.870;13.660;2023-06-26T07:18:01;100753.56;;;22.60
53412;BMP280;39307;52.870;13.660;2023-06-26T07:20:27;100753.06;;;22.68
53412;BMP280;39307;52.870;13.660;2023-06-26T07:22:53;100756.84;;;22.77
53412;BMP280;39307;52.870;13.660;2023-06-26T07:25:20;100753.94;;;22.83
53412;BMP280;39307;52.870;13.660;2023-06-26T07:27:46;100757.75;;;22.97
53412;BMP280;39307;52.870;13.660;2023-06-26T07:30:12;100752.44;;;23.07
53412;BMP280;39307;52.870;13.660;2023-06-26T07:32:38;100736.75;;;23.20
53412;BMP280;39307;52.870;13.660;2023-06-26T07:35:05;100737.31;;;23.37
53412;BMP280;39307;52.870;13.660;2023-06-26T07:37:31;100743.75;;;23.55
53412;BMP280;39307;52.870;13.660;2023-06-26T07:39:57;100742.97;;;23.70
53412;BMP280;39307;52.870;13.660;2023-06-26T07:42:23;100746.75;;;23.83
53412;BMP280;39307;52.870;13.660;2023-06-26T07:44:49;100727.75;;;24.04
53412;BMP280;39307;52.870;13.660;2023-06-26T07:47:16;100733.91;;;24.20
53412;BMP280;39307;52.870;13.660;2023-06-26T07:49:42;100740.78;;;24.40
53412;BMP280;39307;52.870;13.660;2023-06-26T07:52:08;100734.81;;;24.73
53412;BMP280;39307;52.870;13.660;2023-06-26T07:54:34;100734.47;;;24.99
53412;BMP280;39307;52.870;13.660;2023-06-26T07:57:02;100735.91;;;25.29
53412;BMP280;39307;52.870;13.660;2023-06-26T07:59:29;100717.25;;;25.57
53412;BMP280;39307;52.870;13.660;2023-06-26T08:01:57;100714.03;;;25.88
53412;BMP280;39307;52.870;13.660;2023-06-26T08:04:28;100710.88;;;26.14
53412;BMP280;39307;52.870;13.660;2023-06-26T08:06:56;100705.41;;;26.47
53412;BMP280;39307;52.870;13.660;2023-06-26T08:09:25;100705.28;;;26.80
53412;BMP280;39307;52.870;13.660;2023-06-26T08:11:51;100698.91;;;27.13
53412;BMP280;39307;52.870;13.660;2023-06-26T08:14:17;100705.94;;;27.50
53412;BMP280;39307;52.870;13.660;2023-06-26T08:16:44;100692.28;;;27.78
53412;BMP280;39307;52.870;13.660;2023-06-26T08:19:12;100691.06;;;28.02
53412;BMP280;39307;52.870;13.660;2023-06-26T08:21:39;100694.66;;;28.24
53412;BMP280;39307;52.870;13.660;2023-06-26T08:24:05;100683.63;;;28.52
53412;BMP280;39307;52.870;13.660;2023-06-26T08:26:30;100687.19;;;28.88
53412;BMP280;39307;52.870;13.660;2023-06-26T08:28:57;100685.34;;;29.23
53412;BMP280;39307;52.870;13.660;2023-06-26T08:31:23;100680.06;;;29.40
53412;BMP280;39307;52.870;13.660;2023-06-26T08:33:49;100672.34;;;29.60
53412;BMP280;39307;52.870;13.660;2023-06-26T08:36:15;100657.97;;;29.73
53412;BMP280;39307;52.870;13.660;2023-06-26T08:38:42;100659.22;;;29.97
53412;BMP280;39307;52.870;13.660;2023-06-26T08:41:09;100660.94;;;30.23
53412;BMP280;39307;52.870;13.660;2023-06-26T08:43:35;100654.97;;;30.43
53412;BMP280;39307;52.870;13.660;2023-06-26T08:46:02;100667.91;;;30.62
53412;BMP280;39307;52.870;13.660;2023-06-26T08:48:32;100658.28;;;30.86
53412;BMP280;39307;52.870;13.660;2023-06-26T08:51:05;100650.03;;;31.16
53412;BMP280;39307;52.870;13.660;2023-06-26T08:53:43;100658.78;;;31.47
53412;BMP280;39307;52.870;13.660;2023-06-26T08:56:15;100656.72;;;31.61
53412;BMP280;39307;52.870;13.660;2023-06-26T08:58:43;100645.06;;;31.77
53412;BMP280;39307;52.870;13.660;2023-06-26T09:01:10;100636.94;;;31.85
53412;BMP280;39307;52.870;13.660;2023-06-26T09:03:37;100632.44;;;31.97
53412;BMP280;39307;52.870;13.660;2023-06-26T09:06:04;100641.28;;;32.15
53412;BMP280;39307;52.870;13.660;2023-06-26T09:08:30;100626.47;;;32.12
53412;BMP280;39307;52.870;13.660;2023-06-26T09:10:56;100622.22;;;32.40
53412;BMP280;39307;52.870;13.660;2023-06-26T09:13:22;100617.16;;;32.58
53412;BMP280;39307;52.870;13.660;2023-06-26T09:15:48;100616.75;;;32.77
53412;BMP280;39307;52.870;13.660;2023-06-26T09:18:18;100608.22;;;33.07
53412;BMP280;39307;52.870;13.660;2023-06-26T09:20:45;100606.22;;;33.15
53412;BMP280;39307;52.870;13.660;2023-06-26T09:23:12;100595.81;;;33.38
53412;BMP280;39307;52.870;13.660;2023-06-26T09:25:40;100601.19;;;33.58
53412;BMP280;39307;52.870;13.660;2023-06-26T09:28:07;100591.09;;;33.78
53412;BMP280;39307;52.870;13.660;2023-06-26T09:30:35;100593.00;;;33.90
53412;BMP280;39307;52.870;13.660;2023-06-26T09:33:15;100592.09;;;33.86
53412;BMP280;39307;52.870;13.660;2023-06-26T09:35:47;100588.72;;;33.89
53412;BMP280;39307;52.870;13.660;2023-06-26T09:38:14;100586.22;;;33.96
53412;BMP280;39307;52.870;13.660;2023-06-26T09:40:40;100588.16;;;34.07
53412;BMP280;39307;52.870;13.660;2023-06-26T09:43:07;100582.81;;;33.99
53412;BMP280;39307;52.870;13.660;2023-06-26T09:45:35;100579.16;;;34.27
53412;BMP280;39307;52.870;13.660;2023-06-26T09:48:01;100579.78;;;34.35
53412;BMP280;39307;52.870;13.660;2023-06-26T09:50:29;100579.25;;;34.30
53412;BMP280;39307;52.870;13.660;2023-06-26T09:52:56;100570.53;;;34.25
53412;BMP280;39307;52.870;13.660;2023-06-26T09:55:22;100575.38;;;34.31
53412;BMP280;39307;52.870;13.660;2023-06-26T09:57:50;100576.84;;;34.29
53412;BMP280;39307;52.870;13.660;2023-06-26T10:00:18;100568.97;;;34.24
53412;BMP280;39307;52.870;13.660;2023-06-26T10:02:44;100562.81;;;34.15
53412;BMP280;39307;52.870;13.660;2023-06-26T10:05:11;100569.34;;;34.14
53412;BMP280;39307;52.870;13.660;2023-06-26T10:07:38;100562.56;;;34.08
53412;BMP280;39307;52.870;13.660;2023-06-26T10:10:05;100560.09;;;34.03
53412;BMP280;39307;52.870;13.660;2023-06-26T10:12:33;100541.19;;;33.95
53412;BMP280;39307;52.870;13.660;2023-06-26T10:14:59;100552.16;;;33.86
53412;BMP280;39307;52.870;13.660;2023-06-26T10:17:36;100550.38;;;33.90
53412;BMP280;39307;52.870;13.660;2023-06-26T10:20:04;100550.22;;;33.87
53412;BMP280;39307;52.870;13.660;2023-06-26T10:22:37;100543.09;;;33.71
53412;BMP280;39307;52.870;13.660;2023-06-26T10:25:06;100539.47;;;33.67
53412;BMP280;39307;52.870;13.660;2023-06-26T10:27:38;100537.66;;;33.71
53412;BMP280;39307;52.870;13.660;2023-06-26T10:30:12;100538.31;;;33.68
53412;BMP280;39307;52.870;13.660;2023-06-26T10:32:40;100533.56;;;33.65
53412;BMP280;39307;52.870;13.660;2023-06-26T10:35:07;100537.00;;;33.85
53412;BMP280;39307;52.870;13.660;2023-06-26T10:37:43;100525.69;;;33.95
53412;BMP280;39307;52.870;13.660;2023-06-26T10:40:10;100516.53;;;34.00
53412;BMP280;39307;52.870;13.660;2023-06-26T10:42:38;100522.97;;;34.07
53412;BMP280;39307;52.870;13.660;2023-06-26T10:45:19;100514.06;;;34.18
53412;BMP280;39307;52.870;13.660;2023-06-26T10:47:48;100522.03;;;34.38
53412;BMP280;39307;52.870;13.660;2023-06-26T10:50:25;100513.94;;;34.27
53412;BMP280;39307;52.870;13.660;2023-06-26T10:55:55;100506.31;;;34.20
53412;BMP280;39307;52.870;13.660;2023-06-26T10:58:40;100504.75;;;34.31
53412;BMP280;39307;52.870;13.660;2023-06-26T11:01:21;100502.78;;;34.43
53412;BMP280;39307;52.870;13.660;2023-06-26T11:04:01;100491.56;;;34.45
53412;BMP280;39307;52.870;13.660;2023-06-26T11:06:30;100487.53;;;34.39
53412;BMP280;39307;52.870;13.660;2023-06-26T11:14:24;100487.53;;;34.39
53412;BMP280;39307;52.870;13.660;2023-06-26T11:16:51;100482.56;;;34.56
53412;BMP280;39307;52.870;13.660;2023-06-26T11:19:18;100475.50;;;34.79
53412;BMP280;39307;52.870;13.660;2023-06-26T11:21:45;100466.88;;;35.04
53412;BMP280;39307;52.870;13.660;2023-06-26T11:24:12;100465.25;;;35.15
53412;BMP280;39307;52.870;13.660;2023-06-26T11:26:43;100465.06;;;35.23
53412;BMP280;39307;52.870;13.660;2023-06-26T11:29:11;100467.47;;;35.40
53412;BMP280;39307;52.870;13.660;2023-06-26T11:31:39;100460.25;;;35.62
53412;BMP280;39307;52.870;13.660;2023-06-26T11:34:07;100464.44;;;35.29
53412;BMP280;39307;52.870;13.660;2023-06-26T11:36:34;100460.59;;;35.30
53412;BMP280;39307;52.870;13.660;2023-06-26T11:39:01;100453.16;;;35.58
53412;BMP280;39307;52.870;13.660;2023-06-26T11:41:30;100449.63;;;35.73
53412;BMP280;39307;52.870;13.660;2023-06-26T11:44:03;100451.19;;;35.89
53412;BMP280;39307;52.870;13.660;2023-06-26T11:46:30;100444.56;;;36.05
53412;BMP280;39307;52.870;13.660;2023-06-26T11:48:57;100435.56;;;36.20
53412;BMP280;39307;52.870;13.660;2023-06-26T11:51:23;100431.06;;;36.27
53412;BMP280;39307;52.870;13.660;2023-06-26T11:53:49;100431.34;;;36.41
53412;BMP280;39307;52.870;13.660;2023-06-26T11:56:17;100422.75;;;36.39
53412;BMP280;39307;52.870;13.660;2023-06-26T11:59:02;100424.66;;;36.20
53412;BMP280;39307;52.870;13.660;2023-06-26T12:01:35;100415.50;;;36.28
53412;BMP280;39307;52.870;13.660;2023-06-26T12:04:08;100399.22;;;36.31
53412;BMP280;39307;52.870;13.660;2023-06-26T12:06:37;100397.56;;;36.45
53412;BMP280;39307;52.870;13.660;2023-06-26T12:09:13;100390.59;;;36.67
53412;BMP280;39307;52.870;13.660;2023-06-26T12:11:42;100389.97;;;36.54
53412;BMP280;39307;52.870;13.660;2023-06-26T12:14:08;100391.16;;;36.57
53412;BMP280;39307;52.870;13.660;2023-06-26T12:16:35;100389.31;;;36.42
53412;BMP280;39307;52.870;13.660;2023-06-26T12:19:03;100379.13;;;36.39
53412;BMP280;39307;52.870;13.660;2023-06-26T12:24:12;100363.66;;;36.06
53412;BMP280;39307;52.870;13.660;2023-06-26T12:26:43;100372.91;;;35.86
53412;BMP280;39307;52.870;13.660;2023-06-26T12:29:11;100368.16;;;35.83
53412;BMP280;39307;52.870;13.660;2023-06-26T12:31:44;100378.06;;;35.72
53412;BMP280;39307;52.870;13.660;2023-06-26T12:34:12;100364.84;;;35.74
53412;BMP280;39307;52.870;13.660;2023-06-26T12:36:43;100360.13;;;35.90
53412;BMP280;39307;52.870;13.660;2023-06-26T12:39:13;100341.91;;;36.09
53412;BMP280;39307;52.870;13.660;2023-06-26T12:41:52;100344.25;;;36.29
53412;BMP280;39307;52.870;13.660;2023-06-26T12:46:46;100330.78;;;36.77
53412;BMP280;39307;52.870;13.660;2023-06-26T12:49:12;100324.34;;;36.88
53412;BMP280;39307;52.870;13.660;2023-06-26T12:51:38;100325.94;;;36.89
53412;BMP280;39307;52.870;13.660;2023-06-26T12:54:05;100315.38;;;36.88
53412;BMP280;39307;52.870;13.660;2023-06-26T12:56:31;100313.00;;;36.86
53412;BMP280;39307;52.870;13.660;2023-06-26T12:58:58;100307.41;;;36.98
53412;BMP280;39307;52.870;13.660;2023-06-26T13:01:24;100306.19;;;36.96
53412;BMP280;39307;52.870;13.660;2023-06-26T13:03:50;100300.47;;;36.82
53412;BMP280;39307;52.870;13.660;2023-06-26T13:06:16;100298.28;;;36.68
53412;BMP280;39307;52.870;13.660;2023-06-26T13:08:43;100305.91;;;36.60
53412;BMP280;39307;52.870;13.660;2023-06-26T13:11:09;100299.34;;;36.42
53412;BMP280;39307;52.870;13.660;2023-06-26T13:13:35;100292.00;;;36.46
53412;BMP280;39307;52.870;13.660;2023-06-26T13:16:02;100280.19;;;36.38
53412;BMP280;39307;52.870;13.660;2023-06-26T13:18:28;100289.19;;;36.20
53412;BMP280;39307;52.870;13.660;2023-06-26T13:20:54;100284.28;;;36.29
53412;BMP280;39307;52.870;13.660;2023-06-26T13:23:20;100276.13;;;36.29
53412;BMP280;39307;52.870;13.660;2023-06-26T13:25:47;100265.53;;;36.24
53412;BMP280;39307;52.870;13.660;2023-06-26T13:28:13;100263.31;;;36.30
53412;BMP280;39307;52.870;13.660;2023-06-26T13:30:39;100253.22;;;36.11
53412;BMP280;39307;52.870;13.660;2023-06-26T13:33:05;100253.47;;;36.25
53412;BMP280;39307;52.870;13.660;2023-06-26T13:35:31;100248.69;;;36.19
53412;BMP280;39307;52.870;13.660;2023-06-26T13:37:58;100242.84;;;36.20
53412;BMP280;39307;52.870;13.660;2023-06-26T13:40:24;100248.31;;;35.83
53412;BMP280;39307;52.870;13.660;2023-06-26T13:42:50;100241.75;;;35.50
53412;BMP280;39307;52.870;13.660;2023-06-26T13:45:16;100247.97;;;35.32
53412;BMP280;39307;52.870;13.660;2023-06-26T13:47:42;100251.88;;;35.16
53412;BMP280;39307;52.870;13.660;2023-06-26T13:50:09;100265.03;;;34.98
53412;BMP280;39307;52.870;13.660;2023-06-26T13:52:36;100265.31;;;34.93
53412;BMP280;39307;52.870;13.660;2023-06-26T13:55:03;100265.84;;;34.84
53412;BMP280;39307;52.870;13.660;2023-06-26T13:57:29;100255.31;;;34.52
53412;BMP280;39307;52.870;13.660;2023-06-26T13:59:55;100256.78;;;34.34
53412;BMP280;39307;52.870;13.660;2023-06-26T14:02:22;100266.41;;;34.31
53412;BMP280;39307;52.870;13.660;2023-06-26T14:04:48;100254.50;;;34.09